Flight Track Log - Related Links

Times and Time Zones

All times are in EDT time to prevent confusion due to time zone crossing. See the UCA3596 flight status page for this flight to view local times or setup timezone preferences in your user account.

Time Position Orientation Groundspeed Altitude Reporting Facility
EDT Latitude Longitude Course Direction KTS MPH feet Rate Location/Type
Tue 01:11:00 PM 39.3385 -77.2903 19° North  Level Estimated
Tue 01:12:00 PM 39.4002 -77.2633 19° North  Level Estimated
Tue 01:13:00 PM 39.4620 -77.2363 19° North  Level Estimated
Tue 01:14:00 PM 39.5238 -77.2092 19° North  Level Estimated
Tue 01:15:00 PM 39.5855 -77.1821 19° North  Level Estimated
Tue 01:16:00 PM 39.6473 -77.1549 19° North  Level Estimated
Tue 01:17:00 PM 39.7090 -77.1277 19° North  Level Estimated
Tue 01:18:00 PM 39.7707 -77.1004 19° North  Level Estimated
Tue 01:19:00 PM 39.8325 -77.0731 19° North  Level Estimated
Tue 01:20:00 PM 39.8942 -77.0457 19° North  Level Estimated
Tue 01:21:00 PM 39.9559 -77.0183 19° North  Level Estimated
Tue 01:22:00 PM 40.0176 -76.9908 19° North  Level Estimated
Tue 01:23:00 PM 40.0793 -76.9633 19° North  Level Estimated
Tue 01:24:00 PM 40.1410 -76.9357 19° North  Level Estimated
Tue 01:25:00 PM 40.2027 -76.9081 19° North  Level Estimated
Tue 01:26:00 PM 40.2643 -76.8804 19° North  Level Estimated
Tue 01:27:00 PM 40.3260 -76.8527 19° North  Level Estimated
Tue 01:28:00 PM 40.3877 -76.8249 19° North  Level Estimated
Tue 01:29:00 PM 40.4493 -76.7971 19° North  Level Estimated
Tue 01:30:00 PM 40.5110 -76.7692 19° North  Level Estimated
Tue 01:31:00 PM 40.5726 -76.7413 19° North  Level Estimated
Tue 01:32:00 PM 40.6343 -76.7133 19° North  Level Estimated
Tue 01:33:00 PM 40.6959 -76.6853 19° North  Level Estimated
Tue 01:34:00 PM 40.7575 -76.6572 19° North  Level Estimated
Tue 01:35:00 PM 40.8192 -76.6291 19° North  Level Estimated
Tue 01:36:00 PM 40.8808 -76.6009 19° North  Level Estimated
Tue 01:37:00 PM 40.9424 -76.5727 19° North  Level Estimated
Tue 01:38:00 PM 41.0040 -76.5444 19° North  Level Estimated
Tue 01:39:00 PM 41.0656 -76.5160 19° North  Level Estimated
Tue 01:40:00 PM 41.1271 -76.4876 19° North  Level Estimated
Tue 01:41:00 PM 41.1887 -76.4592 19° North  Level Estimated
Tue 01:42:00 PM 41.2503 -76.4307 19° North  Level Estimated
Tue 01:43:00 PM 41.3119 -76.4021 19° North  Level Estimated
Tue 01:44:00 PM 41.3734 -76.3735 19° North  Level Estimated
Tue 01:45:00 PM 41.4350 -76.3448 19° North  Level Estimated
Tue 01:46:00 PM 41.4965 -76.3161 19° North  Level Estimated
Tue 01:47:00 PM 41.5580 -76.2874 19° North  Level Estimated
Tue 01:48:00 PM 41.6196 -76.2585 19° North  Level Estimated
Tue 01:49:00 PM 41.6811 -76.2297 19° North  Level Estimated
Tue 01:50:00 PM 41.7426 -76.2007 19° North  Level Estimated
Tue 01:51:00 PM 41.8041 -76.1717 19° North  Level Estimated
Tue 01:52:00 PM 41.8656 -76.1427 19° North  Level Estimated
Tue 01:53:00 PM 41.9271 -76.1135 19° North  Level Estimated
Tue 01:54:00 PM 41.9886 -76.0844 19° North  Level Estimated
Tue 01:55:00 PM 42.0500 -76.0552 19° North  Level Estimated
Tue 01:56:00 PM 42.1115 -76.0259 19° North  Level Estimated
Tue 01:57:00 PM 42.1730 -75.9966 19° North  Level Estimated
Tue 01:58:00 PM 42.2084 -75.9796 19° North  Level Estimated
Tue 01:59:00 PM 42.2084 -75.9796 35° Northeast  Level Estimated
Tue 02:00:00 PM 42.2084 -75.9796 35° Northeast  Level Estimated
Tue 02:01:00 PM 42.2084 -75.9796 35° Northeast  Level Estimated
Tue 02:02:00 PM 42.2084 -75.9796 35° Northeast  Level Estimated
Tue 02:03:00 PM 42.2084 -75.9796 35° Northeast  Level Estimated
Tue 02:04:00 PM 42.2084 -75.9796 35° Northeast  Level Estimated
Tue 02:05:00 PM 42.2084 -75.9796 35° Northeast  Level Estimated
Tue 02:06:00 PM 42.2084 -75.9796 35° Northeast  Level Estimated
Tue 02:07:00 PM 42.2084 -75.9796 35° Northeast  Level Estimated
Tue 02:08:00 PM 42.2084 -75.9796 35° Northeast  Level Estimated
Tue 02:09:00 PM 42.2084 -75.9796 35° Northeast  Level Estimated
Tue 02:10:00 PM 42.2084 -75.9796 35° Northeast  Level Estimated

Login

Don't have an account? Register now (free) for customized features, flight alerts, and more!